sensor_id;sensor_type;location;lat;lon;timestamp;temperature;humidity
12384;DHT22;6256;63.808;20.336;2022-09-09T00:00:44;7.90;99.90
12384;DHT22;6256;63.808;20.336;2022-09-09T00:03:54;8.00;99.90
12384;DHT22;6256;63.808;20.336;2022-09-09T00:06:31;7.90;99.90
12384;DHT22;6256;63.808;20.336;2022-09-09T00:09:18;8.00;99.90
12384;DHT22;6256;63.808;20.336;2022-09-09T00:14:56;8.00;99.90
12384;DHT22;6256;63.808;20.336;2022-09-09T00:20:35;8.00;99.90
12384;DHT22;6256;63.808;20.336;2022-09-09T00:23:39;8.00;99.90
12384;DHT22;6256;63.808;20.336;2022-09-09T00:26:13;8.00;99.90
12384;DHT22;6256;63.808;20.336;2022-09-09T00:28:48;8.10;99.90
12384;DHT22;6256;63.808;20.336;2022-09-09T00:31:20;8.10;99.90
12384;DHT22;6256;63.808;20.336;2022-09-09T00:33:49;8.00;99.90
12384;DHT22;6256;63.808;20.336;2022-09-09T00:36:19;8.00;99.90
12384;DHT22;6256;63.808;20.336;2022-09-09T00:38:58;8.10;99.90
12384;DHT22;6256;63.808;20.336;2022-09-09T00:44:34;8.10;99.90
12384;DHT22;6256;63.808;20.336;2022-09-09T00:53:18;8.20;99.90
12384;DHT22;6256;63.808;20.336;2022-09-09T00:58:27;8.20;99.90
12384;DHT22;6256;63.808;20.336;2022-09-09T01:01:09;8.20;99.90
12384;DHT22;6256;63.808;20.336;2022-09-09T01:03:52;8.20;99.90
12384;DHT22;6256;63.808;20.336;2022-09-09T01:06:35;8.30;99.90
12384;DHT22;6256;63.808;20.336;2022-09-09T01:09:11;8.30;99.90
12384;DHT22;6256;63.808;20.336;2022-09-09T01:16:45;8.30;99.90
12384;DHT22;6256;63.808;20.336;2022-09-09T01:19:35;8.30;99.90
12384;DHT22;6256;63.808;20.336;2022-09-09T01:27:05;8.40;99.90
12384;DHT22;6256;63.808;20.336;2022-09-09T01:29:32;8.30;99.90
12384;DHT22;6256;63.808;20.336;2022-09-09T01:32:01;8.40;99.90
12384;DHT22;6256;63.808;20.336;2022-09-09T01:34:33;8.40;99.90
12384;DHT22;6256;63.808;20.336;2022-09-09T01:37:07;8.40;99.90
12384;DHT22;6256;63.808;20.336;2022-09-09T01:39:34;8.40;99.90
12384;DHT22;6256;63.808;20.336;2022-09-09T01:42:02;8.40;99.90
12384;DHT22;6256;63.808;20.336;2022-09-09T01:44:29;8.40;99.90
12384;DHT22;6256;63.808;20.336;2022-09-09T01:46:55;8.50;99.90
12384;DHT22;6256;63.808;20.336;2022-09-09T01:49:21;8.50;99.90
12384;DHT22;6256;63.808;20.336;2022-09-09T01:51:51;8.50;99.90
12384;DHT22;6256;63.808;20.336;2022-09-09T01:54:23;8.50;99.90
12384;DHT22;6256;63.808;20.336;2022-09-09T02:00:00;8.40;99.90
12384;DHT22;6256;63.808;20.336;2022-09-09T02:02:32;8.40;99.90
12384;DHT22;6256;63.808;20.336;2022-09-09T02:07:42;8.50;99.90
12384;DHT22;6256;63.808;20.336;2022-09-09T02:10:12;8.50;99.90
12384;DHT22;6256;63.808;20.336;2022-09-09T02:12:45;8.50;99.90
12384;DHT22;6256;63.808;20.336;2022-09-09T02:18:05;8.60;99.90
12384;DHT22;6256;63.808;20.336;2022-09-09T02:20:33;8.60;99.90
12384;DHT22;6256;63.808;20.336;2022-09-09T02:23:04;8.60;99.90
12384;DHT22;6256;63.808;20.336;2022-09-09T02:25:30;8.60;99.90
12384;DHT22;6256;63.808;20.336;2022-09-09T02:27:58;8.60;99.90
12384;DHT22;6256;63.808;20.336;2022-09-09T02:30:24;8.60;99.90
12384;DHT22;6256;63.808;20.336;2022-09-09T02:32:53;8.60;99.90
12384;DHT22;6256;63.808;20.336;2022-09-09T02:35:23;8.60;99.90
12384;DHT22;6256;63.808;20.336;2022-09-09T02:37:53;8.60;99.90
12384;DHT22;6256;63.808;20.336;2022-09-09T02:40:19;8.60;99.90
12384;DHT22;6256;63.808;20.336;2022-09-09T02:42:48;8.60;99.90
12384;DHT22;6256;63.808;20.336;2022-09-09T02:45:18;8.60;99.90
12384;DHT22;6256;63.808;20.336;2022-09-09T02:48:09;8.50;99.90
12384;DHT22;6256;63.808;20.336;2022-09-09T02:53:20;8.60;99.90
12384;DHT22;6256;63.808;20.336;2022-09-09T02:55:54;8.60;99.90
12384;DHT22;6256;63.808;20.336;2022-09-09T02:58:22;8.70;99.90
12384;DHT22;6256;63.808;20.336;2022-09-09T03:00:50;8.70;99.90
12384;DHT22;6256;63.808;20.336;2022-09-09T03:03:17;8.70;99.90
12384;DHT22;6256;63.808;20.336;2022-09-09T03:05:43;8.70;99.90
12384;DHT22;6256;63.808;20.336;2022-09-09T03:08:10;8.70;99.90
12384;DHT22;6256;63.808;20.336;2022-09-09T03:10:36;8.80;99.90
12384;DHT22;6256;63.808;20.336;2022-09-09T03:13:02;8.80;99.90
12384;DHT22;6256;63.808;20.336;2022-09-09T03:15:30;8.80;99.90
12384;DHT22;6256;63.808;20.336;2022-09-09T03:17:57;8.90;99.90
12384;DHT22;6256;63.808;20.336;2022-09-09T03:20:24;8.90;99.90
12384;DHT22;6256;63.808;20.336;2022-09-09T03:22:52;8.90;99.90
12384;DHT22;6256;63.808;20.336;2022-09-09T03:25:18;8.90;99.90
12384;DHT22;6256;63.808;20.336;2022-09-09T03:27:44;9.00;99.90
12384;DHT22;6256;63.808;20.336;2022-09-09T03:30:10;9.00;99.90
12384;DHT22;6256;63.808;20.336;2022-09-09T03:32:36;9.00;99.90
12384;DHT22;6256;63.808;20.336;2022-09-09T03:35:02;9.00;99.90
12384;DHT22;6256;63.808;20.336;2022-09-09T03:37:28;9.10;99.90
12384;DHT22;6256;63.808;20.336;2022-09-09T03:39:54;9.10;99.90
12384;DHT22;6256;63.808;20.336;2022-09-09T03:42:22;9.10;99.90
12384;DHT22;6256;63.808;20.336;2022-09-09T03:44:48;9.10;99.90
12384;DHT22;6256;63.808;20.336;2022-09-09T03:47:16;9.10;99.90
12384;DHT22;6256;63.808;20.336;2022-09-09T03:49:43;9.10;99.90
12384;DHT22;6256;63.808;20.336;2022-09-09T03:52:09;9.10;99.90
12384;DHT22;6256;63.808;20.336;2022-09-09T03:54:35;9.10;99.90
12384;DHT22;6256;63.808;20.336;2022-09-09T03:57:04;9.10;99.90
12384;DHT22;6256;63.808;20.336;2022-09-09T03:59:30;9.10;99.90
12384;DHT22;6256;63.808;20.336;2022-09-09T04:01:56;9.20;99.90
12384;DHT22;6256;63.808;20.336;2022-09-09T04:04:22;9.20;99.90
12384;DHT22;6256;63.808;20.336;2022-09-09T04:06:48;9.20;99.90
12384;DHT22;6256;63.808;20.336;2022-09-09T04:09:14;9.20;99.90
12384;DHT22;6256;63.808;20.336;2022-09-09T04:11:40;9.30;99.90
12384;DHT22;6256;63.808;20.336;2022-09-09T04:14:06;9.30;99.90
12384;DHT22;6256;63.808;20.336;2022-09-09T04:16:33;9.40;99.90
12384;DHT22;6256;63.808;20.336;2022-09-09T04:18:59;9.40;99.90
12384;DHT22;6256;63.808;20.336;2022-09-09T04:21:25;9.40;99.90
12384;DHT22;6256;63.808;20.336;2022-09-09T04:23:51;9.50;99.90
12384;DHT22;6256;63.808;20.336;2022-09-09T04:26:18;9.60;99.90
12384;DHT22;6256;63.808;20.336;2022-09-09T04:28:44;9.60;99.90
12384;DHT22;6256;63.808;20.336;2022-09-09T04:31:16;9.60;99.90
12384;DHT22;6256;63.808;20.336;2022-09-09T04:33:43;9.60;99.90
12384;DHT22;6256;63.808;20.336;2022-09-09T04:36:09;9.60;99.90
12384;DHT22;6256;63.808;20.336;2022-09-09T04:38:35;9.60;99.90
12384;DHT22;6256;63.808;20.336;2022-09-09T04:41:04;9.60;99.90
12384;DHT22;6256;63.808;20.336;2022-09-09T04:43:30;9.60;99.90
12384;DHT22;6256;63.808;20.336;2022-09-09T04:45:56;9.60;99.90
12384;DHT22;6256;63.808;20.336;2022-09-09T04:48:23;9.60;99.90
12384;DHT22;6256;63.808;20.336;2022-09-09T04:53:22;9.70;99.90
12384;DHT22;6256;63.808;20.336;2022-09-09T04:55:48;9.70;99.90
12384;DHT22;6256;63.808;20.336;2022-09-09T04:58:14;9.70;99.90
12384;DHT22;6256;63.808;20.336;2022-09-09T05:00:40;9.70;99.90
12384;DHT22;6256;63.808;20.336;2022-09-09T05:03:06;9.70;99.90
12384;DHT22;6256;63.808;20.336;2022-09-09T05:05:34;9.80;99.90
12384;DHT22;6256;63.808;20.336;2022-09-09T05:08:04;9.80;99.90
12384;DHT22;6256;63.808;20.336;2022-09-09T05:10:30;9.90;99.90
12384;DHT22;6256;63.808;20.336;2022-09-09T05:12:56;9.90;99.90
12384;DHT22;6256;63.808;20.336;2022-09-09T05:15:23;9.90;99.90
12384;DHT22;6256;63.808;20.336;2022-09-09T05:17:48;10.00;99.90
12384;DHT22;6256;63.808;20.336;2022-09-09T05:20:14;10.10;99.90
12384;DHT22;6256;63.808;20.336;2022-09-09T05:22:40;10.10;99.90
12384;DHT22;6256;63.808;20.336;2022-09-09T05:25:06;10.20;99.90
12384;DHT22;6256;63.808;20.336;2022-09-09T05:27:34;10.20;99.90
12384;DHT22;6256;63.808;20.336;2022-09-09T05:30:00;10.30;99.90
12384;DHT22;6256;63.808;20.336;2022-09-09T05:32:26;10.40;99.90
12384;DHT22;6256;63.808;20.336;2022-09-09T05:34:52;10.40;99.90
12384;DHT22;6256;63.808;20.336;2022-09-09T05:37:18;10.50;99.90
12384;DHT22;6256;63.808;20.336;2022-09-09T05:39:44;10.50;99.90
12384;DHT22;6256;63.808;20.336;2022-09-09T05:42:10;10.60;99.90
12384;DHT22;6256;63.808;20.336;2022-09-09T05:44:35;10.70;99.90
12384;DHT22;6256;63.808;20.336;2022-09-09T05:47:02;10.80;99.90
12384;DHT22;6256;63.808;20.336;2022-09-09T05:49:28;10.90;99.90
12384;DHT22;6256;63.808;20.336;2022-09-09T05:51:54;11.00;99.90
12384;DHT22;6256;63.808;20.336;2022-09-09T05:54:20;11.10;99.90
12384;DHT22;6256;63.808;20.336;2022-09-09T05:56:46;11.20;99.90
12384;DHT22;6256;63.808;20.336;2022-09-09T05:59:11;11.30;99.90
12384;DHT22;6256;63.808;20.336;2022-09-09T06:01:38;11.30;99.90
12384;DHT22;6256;63.808;20.336;2022-09-09T06:04:07;11.40;99.90
12384;DHT22;6256;63.808;20.336;2022-09-09T06:06:36;11.50;99.90
12384;DHT22;6256;63.808;20.336;2022-09-09T06:09:04;11.60;99.90
12384;DHT22;6256;63.808;20.336;2022-09-09T06:11:33;11.70;99.90
12384;DHT22;6256;63.808;20.336;2022-09-09T06:13:59;11.70;99.90
12384;DHT22;6256;63.808;20.336;2022-09-09T06:16:26;11.70;99.90
12384;DHT22;6256;63.808;20.336;2022-09-09T06:18:54;11.80;99.90
12384;DHT22;6256;63.808;20.336;2022-09-09T06:23:50;11.80;99.90
12384;DHT22;6256;63.808;20.336;2022-09-09T06:26:23;11.90;99.90
12384;DHT22;6256;63.808;20.336;2022-09-09T06:28:52;11.90;99.90
12384;DHT22;6256;63.808;20.336;2022-09-09T06:31:20;12.00;99.90
12384;DHT22;6256;63.808;20.336;2022-09-09T06:33:48;12.10;99.90
12384;DHT22;6256;63.808;20.336;2022-09-09T06:36:19;12.20;99.90
12384;DHT22;6256;63.808;20.336;2022-09-09T06:38:46;12.20;99.90
12384;DHT22;6256;63.808;20.336;2022-09-09T06:41:14;12.20;99.90
12384;DHT22;6256;63.808;20.336;2022-09-09T06:43:40;12.20;99.90
12384;DHT22;6256;63.808;20.336;2022-09-09T06:46:11;12.30;99.90
12384;DHT22;6256;63.808;20.336;2022-09-09T06:48:39;12.40;99.90
12384;DHT22;6256;63.808;20.336;2022-09-09T06:51:13;12.50;99.90
12384;DHT22;6256;63.808;20.336;2022-09-09T06:53:41;12.60;99.90
12384;DHT22;6256;63.808;20.336;2022-09-09T06:58:42;12.80;99.90
12384;DHT22;6256;63.808;20.336;2022-09-09T07:01:10;12.80;99.90
12384;DHT22;6256;63.808;20.336;2022-09-09T07:03:41;12.90;99.90
12384;DHT22;6256;63.808;20.336;2022-09-09T07:06:09;12.80;99.90
12384;DHT22;6256;63.808;20.336;2022-09-09T07:08:40;12.80;99.90
12384;DHT22;6256;63.808;20.336;2022-09-09T07:11:07;12.80;99.90
12384;DHT22;6256;63.808;20.336;2022-09-09T07:13:33;12.90;99.90
12384;DHT22;6256;63.808;20.336;2022-09-09T07:16:10;12.90;99.90
12384;DHT22;6256;63.808;20.336;2022-09-09T07:18:36;13.00;99.90
12384;DHT22;6256;63.808;20.336;2022-09-09T07:21:03;13.20;99.90
12384;DHT22;6256;63.808;20.336;2022-09-09T07:23:29;13.20;99.90
12384;DHT22;6256;63.808;20.336;2022-09-09T07:25:59;13.30;99.90
12384;DHT22;6256;63.808;20.336;2022-09-09T07:28:25;13.40;99.90
12384;DHT22;6256;63.808;20.336;2022-09-09T07:31:00;13.40;99.90
12384;DHT22;6256;63.808;20.336;2022-09-09T07:33:34;13.50;99.90
12384;DHT22;6256;63.808;20.336;2022-09-09T07:36:09;13.60;99.90
12384;DHT22;6256;63.808;20.336;2022-09-09T07:38:46;13.60;99.90
12384;DHT22;6256;63.808;20.336;2022-09-09T07:41:19;13.70;99.90
12384;DHT22;6256;63.808;20.336;2022-09-09T07:46:14;14.00;99.90
12384;DHT22;6256;63.808;20.336;2022-09-09T07:48:48;14.00;99.90
12384;DHT22;6256;63.808;20.336;2022-09-09T07:51:18;14.10;99.90
12384;DHT22;6256;63.808;20.336;2022-09-09T07:53:46;14.10;99.90
12384;DHT22;6256;63.808;20.336;2022-09-09T07:56:17;14.10;99.90
12384;DHT22;6256;63.808;20.336;2022-09-09T07:58:45;14.00;99.90
12384;DHT22;6256;63.808;20.336;2022-09-09T08:01:14;14.20;99.90
12384;DHT22;6256;63.808;20.336;2022-09-09T08:03:42;14.20;99.90
12384;DHT22;6256;63.808;20.336;2022-09-09T08:06:08;14.10;99.90
12384;DHT22;6256;63.808;20.336;2022-09-09T08:08:36;14.20;99.90
12384;DHT22;6256;63.808;20.336;2022-09-09T08:11:07;14.20;99.90
12384;DHT22;6256;63.808;20.336;2022-09-09T08:13:37;14.20;99.90
12384;DHT22;6256;63.808;20.336;2022-09-09T08:16:07;14.20;99.90
12384;DHT22;6256;63.808;20.336;2022-09-09T08:18:33;14.30;99.90
12384;DHT22;6256;63.808;20.336;2022-09-09T08:21:16;14.30;99.90
12384;DHT22;6256;63.808;20.336;2022-09-09T08:23:44;14.20;99.90
12384;DHT22;6256;63.808;20.336;2022-09-09T08:26:14;14.20;99.90
12384;DHT22;6256;63.808;20.336;2022-09-09T08:31:32;14.50;99.90
12384;DHT22;6256;63.808;20.336;2022-09-09T08:33:59;14.50;99.90
12384;DHT22;6256;63.808;20.336;2022-09-09T08:36:27;14.60;99.90
12384;DHT22;6256;63.808;20.336;2022-09-09T08:38:56;14.90;99.90
12384;DHT22;6256;63.808;20.336;2022-09-09T08:49:46;15.10;99.90
12384;DHT22;6256;63.808;20.336;2022-09-09T08:52:30;15.20;99.90
12384;DHT22;6256;63.808;20.336;2022-09-09T08:57:32;15.50;99.90
12384;DHT22;6256;63.808;20.336;2022-09-09T08:59:59;15.40;99.90
12384;DHT22;6256;63.808;20.336;2022-09-09T09:10:58;15.10;99.90
12384;DHT22;6256;63.808;20.336;2022-09-09T09:13:38;15.20;99.90
12384;DHT22;6256;63.808;20.336;2022-09-09T09:16:34;15.20;99.90
12384;DHT22;6256;63.808;20.336;2022-09-09T09:19:04;15.20;99.90
12384;DHT22;6256;63.808;20.336;2022-09-09T09:24:23;15.60;99.90
12384;DHT22;6256;63.808;20.336;2022-09-09T09:26:50;15.60;99.90
12384;DHT22;6256;63.808;20.336;2022-09-09T09:29:18;15.60;99.90
12384;DHT22;6256;63.808;20.336;2022-09-09T09:31:48;15.70;99.90
12384;DHT22;6256;63.808;20.336;2022-09-09T09:34:16;15.60;99.90
12384;DHT22;6256;63.808;20.336;2022-09-09T09:36:58;15.80;99.90
12384;DHT22;6256;63.808;20.336;2022-09-09T09:39:29;15.80;99.90
12384;DHT22;6256;63.808;20.336;2022-09-09T09:41:55;15.90;99.90
12384;DHT22;6256;63.808;20.336;2022-09-09T09:44:27;16.00;99.90
12384;DHT22;6256;63.808;20.336;2022-09-09T09:47:04;15.80;99.90
12384;DHT22;6256;63.808;20.336;2022-09-09T09:49:30;15.70;99.90
12384;DHT22;6256;63.808;20.336;2022-09-09T09:52:01;15.80;99.90
12384;DHT22;6256;63.808;20.336;2022-09-09T09:54:29;15.80;99.90
12384;DHT22;6256;63.808;20.336;2022-09-09T09:56:56;15.90;99.90
12384;DHT22;6256;63.808;20.336;2022-09-09T09:59:34;16.00;99.90
12384;DHT22;6256;63.808;20.336;2022-09-09T10:02:13;16.00;99.90
12384;DHT22;6256;63.808;20.336;2022-09-09T10:04:40;16.00;99.90
12384;DHT22;6256;63.808;20.336;2022-09-09T10:07:20;16.10;99.90
12384;DHT22;6256;63.808;20.336;2022-09-09T10:09:54;16.10;99.90
12384;DHT22;6256;63.808;20.336;2022-09-09T10:12:30;15.80;99.90
12384;DHT22;6256;63.808;20.336;2022-09-09T10:26:28;16.00;99.90
12384;DHT22;6256;63.808;20.336;2022-09-09T10:36:48;16.10;99.90
12384;DHT22;6256;63.808;20.336;2022-09-09T10:42:06;16.20;99.90
12384;DHT22;6256;63.808;20.336;2022-09-09T10:44:47;16.10;99.90
12384;DHT22;6256;63.808;20.336;2022-09-09T10:53:08;16.10;99.90
12384;DHT22;6256;63.808;20.336;2022-09-09T10:55:52;16.30;99.90
12384;DHT22;6256;63.808;20.336;2022-09-09T10:58:39;16.60;99.90
12384;DHT22;6256;63.808;20.336;2022-09-09T11:01:18;16.60;99.90
12384;DHT22;6256;63.808;20.336;2022-09-09T11:03:55;16.50;99.90
12384;DHT22;6256;63.808;20.336;2022-09-09T11:06:28;16.50;99.90
12384;DHT22;6256;63.808;20.336;2022-09-09T11:08:57;16.70;99.90
12384;DHT22;6256;63.808;20.336;2022-09-09T11:11:41;16.60;99.90
12384;DHT22;6256;63.808;20.336;2022-09-09T11:14:32;16.70;99.90
12384;DHT22;6256;63.808;20.336;2022-09-09T11:19:40;16.30;99.90
12384;DHT22;6256;63.808;20.336;2022-09-09T11:22:16;16.30;99.90
12384;DHT22;6256;63.808;20.336;2022-09-09T11:24:59;16.50;99.90
12384;DHT22;6256;63.808;20.336;2022-09-09T11:40:46;16.40;99.90
12384;DHT22;6256;63.808;20.336;2022-09-09T11:43:25;16.30;99.90
12384;DHT22;6256;63.808;20.336;2022-09-09T11:45:57;16.40;99.90
12384;DHT22;6256;63.808;20.336;2022-09-09T11:48:40;16.20;99.90
12384;DHT22;6256;63.808;20.336;2022-09-09T11:53:49;16.30;99.90
12384;DHT22;6256;63.808;20.336;2022-09-09T11:58:59;16.30;99.90
12384;DHT22;6256;63.808;20.336;2022-09-09T12:01:41;16.20;99.90
12384;DHT22;6256;63.808;20.336;2022-09-09T12:06:58;15.80;99.90
12384;DHT22;6256;63.808;20.336;2022-09-09T12:17:43;16.20;99.90
12384;DHT22;6256;63.808;20.336;2022-09-09T12:20:21;16.10;99.90
12384;DHT22;6256;63.808;20.336;2022-09-09T12:29:02;15.90;99.90
12384;DHT22;6256;63.808;20.336;2022-09-09T12:31:39;16.00;99.90
12384;DHT22;6256;63.808;20.336;2022-09-09T12:34:15;16.10;99.90
12384;DHT22;6256;63.808;20.336;2022-09-09T12:36:44;16.10;99.90
12384;DHT22;6256;63.808;20.336;2022-09-09T12:39:44;16.20;99.90
12384;DHT22;6256;63.808;20.336;2022-09-09T12:42:16;16.30;99.90
12384;DHT22;6256;63.808;20.336;2022-09-09T12:44:54;16.50;99.90
12384;DHT22;6256;63.808;20.336;2022-09-09T12:47:25;16.40;99.90
12384;DHT22;6256;63.808;20.336;2022-09-09T12:49:51;16.50;99.90
12384;DHT22;6256;63.808;20.336;2022-09-09T12:52:25;16.50;99.90
12384;DHT22;6256;63.808;20.336;2022-09-09T12:54:52;16.60;99.90
12384;DHT22;6256;63.808;20.336;2022-09-09T12:57:19;16.70;99.90
12384;DHT22;6256;63.808;20.336;2022-09-09T12:59:48;16.90;99.90
12384;DHT22;6256;63.808;20.336;2022-09-09T13:02:26;17.30;99.90
12384;DHT22;6256;63.808;20.336;2022-09-09T13:04:53;17.60;99.90
12384;DHT22;6256;63.808;20.336;2022-09-09T13:07:21;18.00;99.90
12384;DHT22;6256;63.808;20.336;2022-09-09T13:09:48;18.30;99.90
12384;DHT22;6256;63.808;20.336;2022-09-09T13:12:18;18.90;99.90
12384;DHT22;6256;63.808;20.336;2022-09-09T13:14:46;18.90;99.90
12384;DHT22;6256;63.808;20.336;2022-09-09T13:17:24;18.50;99.90
12384;DHT22;6256;63.808;20.336;2022-09-09T13:19:51;19.30;99.90
12384;DHT22;6256;63.808;20.336;2022-09-09T13:22:34;19.00;99.90
12384;DHT22;6256;63.808;20.336;2022-09-09T13:27:41;18.20;99.90
12384;DHT22;6256;63.808;20.336;2022-09-09T13:30:31;18.40;99.90
12384;DHT22;6256;63.808;20.336;2022-09-09T13:35:47;19.50;99.90
12384;DHT22;6256;63.808;20.336;2022-09-09T13:38:15;19.90;99.90
12384;DHT22;6256;63.808;20.336;2022-09-09T13:40:55;20.30;99.90
12384;DHT22;6256;63.808;20.336;2022-09-09T13:43:24;20.40;99.90
12384;DHT22;6256;63.808;20.336;2022-09-09T13:45:55;20.70;99.70
12384;DHT22;6256;63.808;20.336;2022-09-09T13:48:22;20.50;99.90
12384;DHT22;6256;63.808;20.336;2022-09-09T13:50:59;20.30;99.90
12384;DHT22;6256;63.808;20.336;2022-09-09T13:53:25;20.30;99.70
12384;DHT22;6256;63.808;20.336;2022-09-09T13:55:51;20.70;99.60
12384;DHT22;6256;63.808;20.336;2022-09-09T13:58:18;20.70;98.40
12384;DHT22;6256;63.808;20.336;2022-09-09T14:00:45;20.60;98.50
12384;DHT22;6256;63.808;20.336;2022-09-09T14:03:11;20.30;99.20
12384;DHT22;6256;63.808;20.336;2022-09-09T14:05:37;19.80;99.30
12384;DHT22;6256;63.808;20.336;2022-09-09T14:08:04;19.90;99.90
12384;DHT22;6256;63.808;20.336;2022-09-09T14:10:30;19.80;99.40
12384;DHT22;6256;63.808;20.336;2022-09-09T14:12:56;19.20;99.40
12384;DHT22;6256;63.808;20.336;2022-09-09T14:15:22;18.70;99.60
12384;DHT22;6256;63.808;20.336;2022-09-09T14:17:48;18.60;99.90
12384;DHT22;6256;63.808;20.336;2022-09-09T14:20:14;18.30;99.90
12384;DHT22;6256;63.808;20.336;2022-09-09T14:22:41;17.70;99.70
12384;DHT22;6256;63.808;20.336;2022-09-09T14:25:07;17.50;99.90
12384;DHT22;6256;63.808;20.336;2022-09-09T14:27:33;17.30;99.90
12384;DHT22;6256;63.808;20.336;2022-09-09T14:29:59;17.10;99.90
12384;DHT22;6256;63.808;20.336;2022-09-09T14:32:26;16.90;99.90
12384;DHT22;6256;63.808;20.336;2022-09-09T14:34:52;16.70;99.90
12384;DHT22;6256;63.808;20.336;2022-09-09T14:37:18;16.40;99.90
12384;DHT22;6256;63.808;20.336;2022-09-09T14:39:44;16.00;99.90
12384;DHT22;6256;63.808;20.336;2022-09-09T14:42:11;16.00;99.90
12384;DHT22;6256;63.808;20.336;2022-09-09T14:44:37;16.00;99.90
12384;DHT22;6256;63.808;20.336;2022-09-09T14:47:04;16.00;99.90
12384;DHT22;6256;63.808;20.336;2022-09-09T14:49:34;15.80;99.90
12384;DHT22;6256;63.808;20.336;2022-09-09T14:52:00;15.60;99.90
12384;DHT22;6256;63.808;20.336;2022-09-09T14:54:26;15.50;99.90
12384;DHT22;6256;63.808;20.336;2022-09-09T14:56:52;15.40;99.90
12384;DHT22;6256;63.808;20.336;2022-09-09T14:59:18;15.00;99.90
12384;DHT22;6256;63.808;20.336;2022-09-09T15:01:43;14.90;99.90
12384;DHT22;6256;63.808;20.336;2022-09-09T15:04:12;14.90;99.90
12384;DHT22;6256;63.808;20.336;2022-09-09T15:06:39;14.70;99.90
12384;DHT22;6256;63.808;20.336;2022-09-09T15:09:06;14.60;99.90
12384;DHT22;6256;63.808;20.336;2022-09-09T15:11:37;14.60;99.90
12384;DHT22;6256;63.808;20.336;2022-09-09T15:14:04;14.60;99.90
12384;DHT22;6256;63.808;20.336;2022-09-09T15:16:30;14.60;99.90
12384;DHT22;6256;63.808;20.336;2022-09-09T15:18:59;14.60;99.90
12384;DHT22;6256;63.808;20.336;2022-09-09T15:21:33;14.50;99.90
12384;DHT22;6256;63.808;20.336;2022-09-09T15:23:59;14.40;99.90
12384;DHT22;6256;63.808;20.336;2022-09-09T15:26:26;14.50;99.90
12384;DHT22;6256;63.808;20.336;2022-09-09T15:28:53;14.30;99.90
12384;DHT22;6256;63.808;20.336;2022-09-09T15:33:52;14.20;99.90
12384;DHT22;6256;63.808;20.336;2022-09-09T15:36:20;14.10;99.90
12384;DHT22;6256;63.808;20.336;2022-09-09T15:38:46;14.00;99.90
12384;DHT22;6256;63.808;20.336;2022-09-09T15:41:15;14.00;99.90
12384;DHT22;6256;63.808;20.336;2022-09-09T15:43:48;13.80;99.90
12384;DHT22;6256;63.808;20.336;2022-09-09T15:51:16;13.60;99.90
12384;DHT22;6256;63.808;20.336;2022-09-09T15:56:08;13.40;99.90
12384;DHT22;6256;63.808;20.336;2022-09-09T15:58:35;13.30;99.90
12384;DHT22;6256;63.808;20.336;2022-09-09T16:01:05;13.30;99.90
12384;DHT22;6256;63.808;20.336;2022-09-09T16:03:41;13.20;99.90
12384;DHT22;6256;63.808;20.336;2022-09-09T16:06:08;13.20;99.90
12384;DHT22;6256;63.808;20.336;2022-09-09T16:08:36;13.10;99.90
12384;DHT22;6256;63.808;20.336;2022-09-09T16:11:10;13.10;99.90
12384;DHT22;6256;63.808;20.336;2022-09-09T16:13:38;13.00;99.90
12384;DHT22;6256;63.808;20.336;2022-09-09T16:16:05;13.00;99.90
12384;DHT22;6256;63.808;20.336;2022-09-09T16:21:22;12.90;99.90
12384;DHT22;6256;63.808;20.336;2022-09-09T16:23:52;12.90;99.90
12384;DHT22;6256;63.808;20.336;2022-09-09T16:26:22;12.80;99.90
12384;DHT22;6256;63.808;20.336;2022-09-09T16:28:48;12.80;99.90
12384;DHT22;6256;63.808;20.336;2022-09-09T16:31:18;12.80;99.90
12384;DHT22;6256;63.808;20.336;2022-09-09T16:33:45;12.80;99.90
12384;DHT22;6256;63.808;20.336;2022-09-09T16:36:14;12.70;99.90
12384;DHT22;6256;63.808;20.336;2022-09-09T16:38:41;12.70;99.90
12384;DHT22;6256;63.808;20.336;2022-09-09T16:41:08;12.60;99.90
12384;DHT22;6256;63.808;20.336;2022-09-09T16:43:35;12.60;99.90
12384;DHT22;6256;63.808;20.336;2022-09-09T16:46:11;12.60;99.90
12384;DHT22;6256;63.808;20.336;2022-09-09T16:48:37;12.50;99.90
12384;DHT22;6256;63.808;20.336;2022-09-09T16:51:09;12.50;99.90
12384;DHT22;6256;63.808;20.336;2022-09-09T16:53:36;12.40;99.90
12384;DHT22;6256;63.808;20.336;2022-09-09T16:56:06;12.40;99.90
12384;DHT22;6256;63.808;20.336;2022-09-09T16:58:32;12.30;99.90
12384;DHT22;6256;63.808;20.336;2022-09-09T17:00:59;12.30;99.90
12384;DHT22;6256;63.808;20.336;2022-09-09T17:03:25;12.20;99.90
12384;DHT22;6256;63.808;20.336;2022-09-09T17:05:50;12.20;99.90
12384;DHT22;6256;63.808;20.336;2022-09-09T17:08:16;12.10;99.90
12384;DHT22;6256;63.808;20.336;2022-09-09T17:10:42;12.10;99.90
12384;DHT22;6256;63.808;20.336;2022-09-09T17:13:08;12.00;99.90
12384;DHT22;6256;63.808;20.336;2022-09-09T17:15:38;11.90;99.90
12384;DHT22;6256;63.808;20.336;2022-09-09T17:18:08;11.90;99.90
12384;DHT22;6256;63.808;20.336;2022-09-09T17:20:39;11.80;99.90
12384;DHT22;6256;63.808;20.336;2022-09-09T17:23:09;11.70;99.90
12384;DHT22;6256;63.808;20.336;2022-09-09T17:25:36;11.70;99.90
12384;DHT22;6256;63.808;20.336;2022-09-09T17:28:04;11.60;99.90
12384;DHT22;6256;63.808;20.336;2022-09-09T17:30:34;11.50;99.90
12384;DHT22;6256;63.808;20.336;2022-09-09T17:33:00;11.50;99.90
12384;DHT22;6256;63.808;20.336;2022-09-09T17:35:26;11.40;99.90
12384;DHT22;6256;63.808;20.336;2022-09-09T17:37:55;11.30;99.90
12384;DHT22;6256;63.808;20.336;2022-09-09T17:40:21;11.30;99.90
12384;DHT22;6256;63.808;20.336;2022-09-09T17:42:47;11.20;99.90
12384;DHT22;6256;63.808;20.336;2022-09-09T17:45:13;11.10;99.90
12384;DHT22;6256;63.808;20.336;2022-09-09T17:47:39;11.10;99.90
12384;DHT22;6256;63.808;20.336;2022-09-09T17:50:05;11.00;99.90
12384;DHT22;6256;63.808;20.336;2022-09-09T17:52:32;10.90;99.90
12384;DHT22;6256;63.808;20.336;2022-09-09T17:54:58;10.90;99.90
12384;DHT22;6256;63.808;20.336;2022-09-09T17:57:25;10.80;99.90
12384;DHT22;6256;63.808;20.336;2022-09-09T17:59:51;10.80;99.90
12384;DHT22;6256;63.808;20.336;2022-09-09T18:02:17;10.70;99.90
12384;DHT22;6256;63.808;20.336;2022-09-09T18:04:42;10.60;99.90
12384;DHT22;6256;63.808;20.336;2022-09-09T18:07:08;10.60;99.90
12384;DHT22;6256;63.808;20.336;2022-09-09T18:09:34;10.50;99.90
12384;DHT22;6256;63.808;20.336;2022-09-09T18:12:00;10.40;99.90
12384;DHT22;6256;63.808;20.336;2022-09-09T18:14:29;10.40;99.90
12384;DHT22;6256;63.808;20.336;2022-09-09T18:16:57;10.40;99.90
12384;DHT22;6256;63.808;20.336;2022-09-09T18:19:26;10.30;99.90
12384;DHT22;6256;63.808;20.336;2022-09-09T18:21:53;10.30;99.90
12384;DHT22;6256;63.808;20.336;2022-09-09T18:24:20;10.30;99.90
12384;DHT22;6256;63.808;20.336;2022-09-09T18:26:47;10.20;99.90
12384;DHT22;6256;63.808;20.336;2022-09-09T18:29:16;10.20;99.90